Time;durP1;ratioP1;P1;durP2;ratioP2;P2;SDS_P1;SDS_P2;PMS_P1;PMS_P2;Temp;Humidity;BMP_temperature;BMP_pressure;BME280_temperature;BME280_humidity;BME280_pressure;Samples;Min_cycle;Max_cycle;Signal;HPM_P1;HPM_P2
2021/11/28 00:00:09;;;;;;;50.90;26.40;;;;;;;2.98;75.91;98454.65;126218;1315;108828;-81
2021/11/28 00:03:35;;;;;;;54.50;26.90;;;;;;;2.97;75.77;98457.91;126110;1316;110227;-85
2021/11/28 00:06:50;;;;;;;48.80;24.80;;;;;;;2.97;75.92;98458.55;126318;1315;108813;-85
2021/11/28 00:10:01;;;;;;;42.20;21.60;;;;;;;3.01;76.04;98454.73;126098;1315;107857;-81
2021/11/28 00:13:08;;;;;;;46.00;23.40;;;;;;;3.05;75.94;98452.19;125990;1319;108843;-82
2021/11/28 00:16:15;;;;;;;45.40;24.50;;;;;;;3.12;76.06;98445.73;125939;1318;108726;-81
2021/11/28 00:19:20;;;;;;;48.60;25.70;;;;;;;3.18;75.90;98438.19;126177;1316;109034;-81
2021/11/28 00:22:26;;;;;;;47.50;23.80;;;;;;;3.19;75.72;98444.17;126011;1317;108811;-82
2021/11/28 00:25:31;;;;;;;42.50;23.30;;;;;;;3.19;75.75;98444.09;125986;1316;108877;-81
2021/11/28 00:28:37;;;;;;;44.30;22.90;;;;;;;3.19;75.82;98441.94;126204;1315;107767;-80
2021/11/28 00:31:44;;;;;;;44.50;24.20;;;;;;;3.17;75.84;98440.71;126249;1314;108784;-81
2021/11/28 00:34:51;;;;;;;47.10;24.20;;;;;;;3.15;75.82;98431.73;126229;1315;108939;-81
2021/11/28 00:37:57;;;;;;;47.60;23.60;;;;;;;3.14;75.89;98428.83;125990;1316;108745;-82
2021/11/28 00:41:03;;;;;;;46.50;23.60;;;;;;;3.13;75.91;98432.48;125846;1316;108940;-84
2021/11/28 00:44:09;;;;;;;40.90;20.00;;;;;;;3.11;75.83;98426.98;125745;1315;108802;-84
2021/11/28 00:47:15;;;;;;;43.60;22.10;;;;;;;3.13;75.89;98424.01;125734;1320;108668;-84
2021/11/28 00:50:37;;;;;;;41.60;21.90;;;;;;;3.15;75.80;98417.86;125862;1315;108732;-84
2021/11/28 00:53:45;;;;;;;47.10;23.70;;;;;;;3.17;75.80;98418.21;126001;1314;108776;-84
2021/11/28 00:56:50;;;;;;;42.10;22.10;;;;;;;3.12;75.66;98416.22;125956;1315;108803;-84
2021/11/28 00:59:56;;;;;;;45.50;23.80;;;;;;;3.07;75.67;98421.14;125837;1320;108812;-83
2021/11/28 01:03:02;;;;;;;45.20;22.90;;;;;;;3.03;75.80;98423.23;125927;1315;108931;-84
2021/11/28 01:06:07;;;;;;;43.20;23.20;;;;;;;2.97;75.84;98420.86;125974;1316;107871;-84
2021/11/28 01:09:14;;;;;;;41.50;22.60;;;;;;;2.94;75.96;98418.34;125922;1315;108930;-84
2021/11/28 01:12:20;;;;;;;49.00;23.90;;;;;;;2.92;75.91;98419.19;125743;1316;109001;-81
2021/11/28 01:15:27;;;;;;;44.90;21.80;;;;;;;2.93;76.02;98425.48;125754;1316;108880;-79
2021/11/28 01:18:33;;;;;;;35.20;18.20;;;;;;;2.95;75.98;98426.27;125804;1315;110043;-82
2021/11/28 01:21:48;;;;;;;38.00;20.90;;;;;;;3.01;76.08;98422.44;125913;1315;108878;-81
2021/11/28 01:24:54;;;;;;;42.40;21.40;;;;;;;3.07;75.92;98418.45;125789;1315;109077;-81
2021/11/28 01:27:59;;;;;;;38.50;20.90;;;;;;;3.10;75.90;98414.89;125875;1315;108896;-83
2021/11/28 01:31:05;;;;;;;40.80;22.60;;;;;;;3.12;75.79;98402.55;125832;1317;109032;-82
2021/11/28 01:34:11;;;;;;;43.00;22.30;;;;;;;3.12;75.98;98403.94;125973;1315;107225;-82
2021/11/28 01:37:16;;;;;;;43.80;22.90;;;;;;;3.12;75.83;98408.48;125991;1315;108994;-83
2021/11/28 01:40:23;;;;;;;39.70;21.90;;;;;;;3.09;75.98;98409.09;126137;1317;108829;-82
2021/11/28 01:43:29;;;;;;;47.40;24.30;;;;;;;3.10;75.97;98411.70;125750;1317;108901;-84
2021/11/28 01:46:35;;;;;;;44.60;22.60;;;;;;;3.09;76.03;98409.30;126115;1315;107173;-80
2021/11/28 01:49:40;;;;;;;41.00;20.20;;;;;;;3.09;75.93;98401.38;125899;1315;108822;-79
2021/11/28 01:52:45;;;;;;;42.10;22.70;;;;;;;3.13;75.95;98401.70;126102;1315;109055;-80
2021/11/28 01:55:51;;;;;;;42.50;22.60;;;;;;;3.15;75.98;98403.56;125867;1315;108793;-80
2021/11/28 01:59:03;;;;;;;39.90;21.40;;;;;;;3.17;75.93;98402.93;125947;1315;109043;-80
2021/11/28 02:02:09;;;;;;;40.50;22.10;;;;;;;3.21;75.88;98403.62;126036;1316;108946;-78
2021/11/28 02:05:16;;;;;;;42.10;22.80;;;;;;;3.20;75.89;98404.70;125909;1315;108795;-80
2021/11/28 02:08:22;;;;;;;47.60;25.00;;;;;;;3.16;75.81;98405.45;125817;1317;109009;-80
2021/11/28 02:11:27;;;;;;;48.80;25.70;;;;;;;3.13;75.97;98400.25;126004;1315;108980;-81
2021/11/28 02:14:33;;;;;;;50.10;26.50;;;;;;;3.11;75.98;98395.06;125904;1316;108921;-79
2021/11/28 02:17:39;;;;;;;49.60;25.80;;;;;;;3.10;76.01;98397.10;126309;1316;108853;-78
2021/11/28 02:20:46;;;;;;;47.50;23.40;;;;;;;3.11;76.07;98395.06;125982;1317;108751;-80
2021/11/28 02:23:52;;;;;;;46.50;25.70;;;;;;;3.14;76.06;98389.86;125925;1315;108897;-81
2021/11/28 02:26:58;;;;;;;43.50;24.20;;;;;;;3.17;76.07;98388.33;125966;1318;108807;-80
2021/11/28 02:30:04;;;;;;;45.40;25.00;;;;;;;3.19;76.07;98386.02;126118;1319;109008;-82
2021/11/28 02:33:10;;;;;;;47.90;26.30;;;;;;;3.19;76.01;98379.41;125947;1315;108771;-80
2021/11/28 02:36:17;;;;;;;47.80;26.20;;;;;;;3.13;75.87;98372.73;126074;1316;109051;-81
2021/11/28 02:39:23;;;;;;;44.10;25.10;;;;;;;3.05;75.85;98368.06;126069;1315;107833;-81
2021/11/28 02:42:29;;;;;;;48.20;26.20;;;;;;;2.95;75.78;98375.02;125881;1315;108987;-79
2021/11/28 02:45:35;;;;;;;49.90;26.90;;;;;;;2.83;75.84;98376.02;126370;1317;108788;-85
2021/11/28 02:48:41;;;;;;;48.60;25.60;;;;;;;2.70;75.79;98372.20;127026;1315;108977;-82
2021/11/28 02:51:47;;;;;;;50.80;26.60;;;;;;;2.57;75.88;98373.08;127772;1315;108906;-84
2021/11/28 02:54:52;;;;;;;40.80;21.40;;;;;;;2.47;75.79;98377.54;127701;1316;108765;-84
2021/11/28 02:57:59;;;;;;;45.00;23.40;;;;;;;2.41;75.84;98374.88;127504;1315;108092;-81
2021/11/28 03:01:08;;;;;;;45.30;24.10;;;;;;;2.37;75.95;98374.33;126028;1315;107985;-80
2021/11/28 03:04:14;;;;;;;46.80;24.70;;;;;;;2.33;75.81;98377.88;126154;1315;108590;-81
2021/11/28 03:07:21;;;;;;;46.20;24.70;;;;;;;2.25;75.76;98378.11;126135;1315;108795;-81
2021/11/28 03:10:34;;;;;;;46.90;24.90;;;;;;;2.15;76.02;98376.59;126210;1317;108741;-82
2021/11/28 03:13:44;;;;;;;44.40;24.20;;;;;;;2.08;75.86;98381.85;125908;1314;109029;-83
2021/11/28 03:16:50;;;;;;;46.10;24.40;;;;;;;2.00;75.97;98381.36;125847;1315;107785;-84
2021/11/28 03:19:56;;;;;;;50.20;25.70;;;;;;;1.91;76.15;98385.84;126540;1320;108909;-84
2021/11/28 03:23:02;;;;;;;52.80;26.60;;;;;;;1.84;76.06;98386.50;126454;1317;106465;-83
2021/11/28 03:26:10;;;;;;;43.90;20.90;;;;;;;1.80;76.11;98389.33;126147;1315;106905;-84
2021/11/28 03:29:18;;;;;;;46.80;23.80;;;;;;;1.76;76.18;98400.42;126212;1317;109004;-84
2021/11/28 03:32:43;;;;;;;45.70;23.80;;;;;;;1.75;76.19;98401.73;126118;1320;108936;-84
2021/11/28 03:36:21;;;;;;;41.70;23.00;;;;;;;1.70;76.10;98398.11;126157;1317;110127;-86
2021/11/28 03:39:30;;;;;;;46.70;25.30;;;;;;;1.64;76.13;98398.52;125981;1315;106651;-81
2021/11/28 03:42:36;;;;;;;44.90;24.00;;;;;;;1.60;76.15;98402.06;126122;1316;108356;-84
2021/11/28 03:45:41;;;;;;;43.70;24.10;;;;;;;1.56;76.21;98409.96;126248;1317;108850;-83
2021/11/28 03:48:49;;;;;;;48.80;24.70;;;;;;;1.52;76.11;98411.92;126522;1317;109647;-83
2021/11/28 03:51:58;;;;;;;55.60;26.10;;;;;;;1.47;76.20;98415.38;125884;1317;108760;-84
2021/11/28 03:55:05;;;;;;;49.00;25.40;;;;;;;1.42;76.17;98411.26;126060;1317;108895;-85
2021/11/28 03:58:11;;;;;;;44.30;22.60;;;;;;;1.43;76.24;98405.95;125994;1317;108886;-84
2021/11/28 04:01:19;;;;;;;44.60;23.90;;;;;;;1.45;76.28;98403.59;125962;1317;108694;-82
2021/11/28 04:04:25;;;;;;;47.60;24.00;;;;;;;1.50;76.35;98404.54;126740;1317;108852;-82
2021/11/28 04:07:49;;;;;;;42.70;23.30;;;;;;;1.56;76.36;98405.77;125992;1317;107671;-84
2021/11/28 04:10:57;;;;;;;40.20;22.50;;;;;;;1.60;76.36;98406.25;126178;1317;108818;-83
2021/11/28 04:14:03;;;;;;;44.90;24.30;;;;;;;1.61;76.26;98402.67;126538;1317;108861;-83
2021/11/28 04:17:09;;;;;;;46.00;24.40;;;;;;;1.59;76.33;98395.34;126198;1315;108796;-83
2021/11/28 04:20:19;;;;;;;44.40;24.10;;;;;;;1.61;76.39;98385.52;125935;1317;108895;-83
2021/11/28 04:23:25;;;;;;;55.30;27.30;;;;;;;1.60;76.44;98383.31;126088;1317;107899;-81
2021/11/28 04:26:30;;;;;;;54.60;27.10;;;;;;;1.59;76.48;98382.02;126141;1317;109038;-82
2021/11/28 04:29:36;;;;;;;41.40;22.50;;;;;;;1.61;76.54;98380.59;125805;1317;108744;-84
2021/11/28 04:32:44;;;;;;;49.60;24.80;;;;;;;1.66;76.42;98381.92;126164;1317;109115;-83
2021/11/28 04:35:49;;;;;;;49.30;24.30;;;;;;;1.69;76.40;98378.23;125948;1317;108863;-83
2021/11/28 04:38:55;;;;;;;49.00;25.80;;;;;;;1.70;76.33;98377.34;126153;1316;109050;-85
2021/11/28 04:42:01;;;;;;;46.60;24.60;;;;;;;1.71;76.37;98378.07;126438;1317;108903;-82
2021/11/28 04:45:08;;;;;;;45.70;24.70;;;;;;;1.75;76.35;98384.51;126203;1316;108987;-81
2021/11/28 04:48:14;;;;;;;49.70;24.80;;;;;;;1.78;76.26;98387.31;125925;1321;106576;-81
2021/11/28 04:51:20;;;;;;;47.70;23.70;;;;;;;1.72;76.12;98391.81;126112;1314;108912;-82
2021/11/28 04:54:26;;;;;;;46.80;24.10;;;;;;;1.67;76.11;98399.54;126456;1317;108787;-81
2021/11/28 04:57:32;;;;;;;52.60;26.50;;;;;;;1.61;76.33;98406.20;126143;1317;107898;-82
2021/11/28 05:00:38;;;;;;;48.60;25.40;;;;;;;1.61;76.32;98410.20;126346;1317;109219;-82
2021/11/28 05:03:46;;;;;;;53.70;27.10;;;;;;;1.62;76.43;98412.94;126092;1317;109431;-86
2021/11/28 05:07:29;;;;;;;42.60;22.20;;;;;;;1.70;76.59;98408.30;125911;1315;108963;-86
2021/11/28 05:10:36;;;;;;;46.00;23.20;;;;;;;1.77;76.32;98408.20;126044;1317;108934;-86
2021/11/28 05:13:42;;;;;;;46.50;23.50;;;;;;;1.82;76.27;98407.70;126008;1317;108901;-83
2021/11/28 05:16:47;;;;;;;42.40;23.10;;;;;;;1.86;76.25;98401.23;125975;1317;108765;-81
2021/11/28 05:19:58;;;;;;;44.40;24.10;;;;;;;1.90;76.29;98399.77;126145;1317;108799;-82
2021/11/28 05:23:07;;;;;;;41.40;22.70;;;;;;;1.91;76.20;98403.75;126065;1315;108729;-83
2021/11/28 05:26:14;;;;;;;42.80;23.80;;;;;;;1.89;76.29;98406.86;126005;1316;108771;-84
2021/11/28 05:29:20;;;;;;;44.30;23.80;;;;;;;1.90;76.34;98404.67;126055;1317;108997;-83
2021/11/28 05:32:25;;;;;;;45.80;24.70;;;;;;;1.92;76.42;98402.20;125709;1315;107559;-82
2021/11/28 05:35:46;;;;;;;46.00;25.00;;;;;;;1.95;76.37;98395.30;125918;1317;108747;-82
2021/11/28 05:39:12;;;;;;;47.50;24.10;;;;;;;1.95;76.40;98389.87;126026;1317;108240;-84
2021/11/28 05:42:18;;;;;;;42.90;22.00;;;;;;;1.99;76.31;98393.36;126164;1317;108762;-84
2021/11/28 05:45:26;;;;;;;47.00;24.70;;;;;;;2.03;76.22;98398.63;125907;1315;109188;-83
2021/11/28 05:48:35;;;;;;;44.50;25.10;;;;;;;2.02;76.23;98405.34;125826;1315;108890;-83
2021/11/28 05:51:55;;;;;;;45.30;26.00;;;;;;;2.06;76.42;98411.86;125918;1316;109022;-83
2021/11/28 05:55:01;;;;;;;52.60;27.50;;;;;;;2.13;76.25;98410.63;125856;1315;108791;-79
2021/11/28 05:58:07;;;;;;;54.90;29.60;;;;;;;2.16;76.23;98401.70;125862;1317;108927;-78
2021/11/28 06:01:13;;;;;;;55.10;29.70;;;;;;;2.19;76.21;98399.20;126204;1313;108837;-78
2021/11/28 06:04:19;;;;;;;51.60;29.10;;;;;;;2.15;76.24;98411.44;126283;1318;108999;-78
2021/11/28 06:08:03;;;;;;;50.00;27.80;;;;;;;2.09;76.16;98419.11;126319;1315;107069;-79
2021/11/28 06:11:09;;;;;;;53.90;29.00;;;;;;;2.08;76.33;98424.80;125990;1317;108790;-78
2021/11/28 06:14:15;;;;;;;61.90;31.60;;;;;;;2.06;76.24;98427.57;125806;1317;108999;-77
2021/11/28 06:17:45;;;;;;;57.80;27.30;;;;;;;2.08;76.31;98431.64;125803;1317;108954;-78
2021/11/28 06:21:16;;;;;;;56.00;29.00;;;;;;;2.09;76.13;98427.48;125745;1317;108988;-77
2021/11/28 06:24:27;;;;;;;55.80;29.80;;;;;;;2.12;76.25;98426.17;125674;1317;108955;-80
2021/11/28 06:27:42;;;;;;;55.30;29.00;;;;;;;2.22;76.26;98424.50;125696;1315;108988;-81
2021/11/28 06:30:48;;;;;;;53.60;28.40;;;;;;;2.23;76.08;98424.37;125692;1315;108823;-80
2021/11/28 06:33:56;;;;;;;47.40;26.20;;;;;;;2.22;76.13;98415.70;125853;1320;108758;-79
2021/11/28 06:37:21;;;;;;;43.50;24.10;;;;;;;2.18;76.09;98405.63;126054;1315;108962;-79
2021/11/28 06:40:45;;;;;;;43.50;24.70;;;;;;;2.14;76.30;98413.48;125981;1318;107767;-82
2021/11/28 06:43:56;;;;;;;51.40;27.70;;;;;;;2.17;76.38;98418.28;126114;1317;107774;-83
2021/11/28 06:47:02;;;;;;;43.90;23.60;;;;;;;2.21;76.51;98423.56;126026;1317;108933;-79
2021/11/28 06:50:10;;;;;;;36.10;20.50;;;;;;;2.29;76.45;98425.83;126168;1317;107920;-78
2021/11/28 06:53:34;;;;;;;43.10;23.20;;;;;;;2.37;76.56;98421.31;126339;1317;108942;-79
2021/11/28 06:56:58;;;;;;;41.30;23.60;;;;;;;2.44;76.42;98416.08;125918;1315;108852;-79
2021/11/28 07:00:05;;;;;;;43.80;24.90;;;;;;;2.53;76.60;98411.74;125917;1316;109042;-78
2021/11/28 07:03:11;;;;;;;40.50;23.40;;;;;;;2.59;76.44;98411.35;126071;1317;108917;-79
2021/11/28 07:06:29;;;;;;;43.60;25.20;;;;;;;2.63;76.40;98415.54;125954;1315;111477;-81
2021/11/28 07:09:35;;;;;;;52.20;27.80;;;;;;;2.65;76.49;98426.23;126170;1315;109052;-78
2021/11/28 07:12:43;;;;;;;74.00;38.60;;;;;;;2.67;76.46;98433.52;126437;1313;106097;-80
2021/11/28 07:15:55;;;;;;;48.70;27.50;;;;;;;2.67;76.44;98421.99;126262;1313;107814;-79
2021/11/28 07:19:10;;;;;;;39.50;22.20;;;;;;;2.65;76.42;98419.67;126126;1313;108940;-80
2021/11/28 07:22:35;;;;;;;43.80;25.60;;;;;;;2.69;76.40;98423.66;126390;1315;107805;-81
2021/11/28 07:25:42;;;;;;;43.20;24.40;;;;;;;2.71;76.26;98427.21;126397;1313;108974;-81
2021/11/28 07:29:00;;;;;;;39.90;23.80;;;;;;;2.72;76.35;98435.91;126344;1317;108742;-82
2021/11/28 07:32:06;;;;;;;47.20;26.80;;;;;;;2.71;76.22;98437.38;126140;1315;106193;-81
2021/11/28 07:35:30;;;;;;;44.80;25.80;;;;;;;2.68;76.21;98439.48;126436;1314;108969;-80
2021/11/28 07:38:55;;;;;;;43.40;25.10;;;;;;;2.63;76.45;98429.55;126422;1314;109062;-79
2021/11/28 07:42:00;;;;;;;44.40;25.80;;;;;;;2.66;76.48;98424.56;126197;1314;108764;-80
2021/11/28 07:45:15;;;;;;;44.00;25.70;;;;;;;2.69;76.44;98421.29;126411;1314;108866;-84
2021/11/28 07:48:39;;;;;;;51.80;28.50;;;;;;;2.68;76.55;98428.00;126414;1314;108696;-78
2021/11/28 07:51:51;;;;;;;48.00;27.60;;;;;;;2.69;76.52;98428.60;126087;1315;108886;-84
2021/11/28 07:54:56;;;;;;;41.50;23.00;;;;;;;2.76;76.54;98425.19;126117;1315;108824;-86
2021/11/28 07:58:28;;;;;;;43.00;23.50;;;;;;;2.82;76.49;98423.70;126108;1314;107800;-82
2021/11/28 08:01:38;;;;;;;41.40;24.20;;;;;;;2.92;76.52;98425.18;126391;1317;108984;-83
2021/11/28 08:05:03;;;;;;;41.80;24.00;;;;;;;3.00;76.44;98431.09;126182;1316;108798;-83
2021/11/28 08:08:44;;;;;;;40.70;24.00;;;;;;;3.04;76.32;98434.73;126139;1315;108954;-80
2021/11/28 08:12:00;;;;;;;41.70;23.90;;;;;;;3.06;76.24;98436.48;126062;1315;108845;-78
2021/11/28 08:15:09;;;;;;;40.00;23.20;;;;;;;3.09;76.23;98441.27;126052;1317;108577;-79
2021/11/28 08:18:15;;;;;;;44.30;25.70;;;;;;;3.11;76.37;98449.32;126121;1317;108351;-79
2021/11/28 08:21:26;;;;;;;45.70;24.80;;;;;;;3.17;76.47;98451.09;126223;1315;108724;-78
2021/11/28 08:24:32;;;;;;;47.90;26.10;;;;;;;3.24;76.38;98446.54;126008;1317;108939;-81
2021/11/28 08:27:38;;;;;;;42.50;22.20;;;;;;;3.26;76.31;98449.32;125903;1318;109021;-78
2021/11/28 08:30:44;;;;;;;44.50;25.10;;;;;;;3.38;76.29;98448.81;125924;1315;108837;-79
2021/11/28 08:34:24;;;;;;;45.20;25.90;;;;;;;3.55;76.24;98449.10;125740;1319;108789;-76
2021/11/28 08:37:41;;;;;;;42.70;24.70;;;;;;;3.71;76.23;98446.03;125922;1313;108988;-77
2021/11/28 08:40:47;;;;;;;44.50;25.90;;;;;;;3.80;75.95;98440.73;125952;1314;106845;-76
2021/11/28 08:43:54;;;;;;;44.70;25.60;;;;;;;3.85;75.79;98439.96;125939;1317;109476;-76
2021/11/28 08:46:59;;;;;;;42.00;25.00;;;;;;;3.80;75.84;98439.86;126108;1313;108733;-78
2021/11/28 08:50:09;;;;;;;43.20;26.30;;;;;;;3.84;75.95;98438.05;125938;1313;109003;-75
2021/11/28 08:53:15;;;;;;;41.50;24.40;;;;;;;3.88;75.88;98437.67;125813;1315;107782;-76
2021/11/28 08:56:23;;;;;;;40.80;22.70;;;;;;;3.88;75.61;98443.52;125820;1315;108857;-76
2021/11/28 08:59:29;;;;;;;36.90;21.60;;;;;;;3.93;75.81;98437.21;125876;1315;108926;-76
2021/11/28 09:02:35;;;;;;;37.60;22.50;;;;;;;4.08;75.78;98438.52;125765;1319;108234;-74
2021/11/28 09:05:41;;;;;;;37.90;22.00;;;;;;;4.22;75.85;98439.73;125960;1315;108656;-75
2021/11/28 09:08:46;;;;;;;36.00;22.10;;;;;;;4.38;75.75;98431.36;125951;1314;107920;-75
2021/11/28 09:11:52;;;;;;;38.30;23.20;;;;;;;4.56;75.56;98431.61;125871;1316;108820;-73
2021/11/28 09:14:57;;;;;;;37.60;23.50;;;;;;;4.73;75.36;98434.58;126187;1314;108920;-76
2021/11/28 09:18:07;;;;;;;36.90;22.20;;;;;;;4.87;75.57;98428.73;126348;1314;108860;-78
2021/11/28 09:21:15;;;;;;;36.20;23.30;;;;;;;4.99;75.31;98421.69;126920;1314;108771;-76
2021/11/28 09:24:37;;;;;;;37.50;23.50;;;;;;;5.11;75.16;98417.02;125829;1315;107988;-75
2021/11/28 09:27:44;;;;;;;37.30;23.30;;;;;;;5.20;75.17;98416.66;126000;1315;108772;-77
2021/11/28 09:30:52;;;;;;;34.30;20.00;;;;;;;5.26;74.98;98416.46;125923;1317;109061;-76
2021/11/28 09:33:57;;;;;;;35.60;20.20;;;;;;;5.33;75.05;98397.77;125943;1317;107634;-73
2021/11/28 09:37:05;;;;;;;77.50;55.70;;;;;;;5.48;75.05;98400.76;126253;1314;108935;-77
2021/11/28 09:40:12;;;;;;;47.50;28.40;;;;;;;5.63;75.06;98402.68;126007;1314;108948;-77
2021/11/28 09:43:19;;;;;;;35.00;22.20;;;;;;;5.75;74.68;98413.19;125987;1313;108724;-78
2021/11/28 09:46:27;;;;;;;48.20;33.70;;;;;;;5.80;74.57;98408.19;125847;1316;108722;-76
2021/11/28 09:49:33;;;;;;;60.90;37.30;;;;;;;5.82;74.55;98412.08;125883;1314;108864;-79
2021/11/28 09:52:39;;;;;;;40.90;26.50;;;;;;;5.85;74.51;98420.64;126087;1314;108985;-74
2021/11/28 09:55:47;;;;;;;37.60;25.30;;;;;;;5.89;74.48;98426.95;126051;1314;108863;-82
2021/11/28 09:58:55;;;;;;;78.20;46.80;;;;;;;5.86;74.17;98421.14;126131;1315;108715;-81
2021/11/28 10:02:00;;;;;;;49.80;30.30;;;;;;;5.75;74.41;98414.60;126296;1313;108774;-83
2021/11/28 10:05:09;;;;;;;40.70;24.40;;;;;;;5.72;74.49;98409.08;126141;1315;108797;-81
2021/11/28 10:08:15;;;;;;;61.90;40.70;;;;;;;5.75;74.45;98411.23;125965;1315;108780;-80
2021/11/28 10:12:13;;;;;;;68.30;37.00;;;;;;;5.75;74.21;98406.26;125871;1315;106113;-79
2021/11/28 10:15:21;;;;;;;44.10;26.30;;;;;;;5.75;74.44;98401.73;125915;1314;108865;-77
2021/11/28 10:18:27;;;;;;;37.10;21.80;;;;;;;5.75;74.29;98402.79;126096;1315;109011;-76
2021/11/28 10:21:33;;;;;;;188.60;66.00;;;;;;;5.76;74.15;98404.45;125988;1316;109038;-77
2021/11/28 10:24:49;;;;;;;58.20;29.60;;;;;;;5.77;74.17;98405.85;126144;1315;108782;-78
2021/11/28 10:27:56;;;;;;;43.30;25.40;;;;;;;5.82;74.04;98399.11;126402;1315;108706;-78
2021/11/28 10:31:02;;;;;;;42.10;25.80;;;;;;;5.94;73.86;98399.63;125959;1315;108961;-77
2021/11/28 10:34:18;;;;;;;43.00;26.60;;;;;;;6.03;73.74;98405.35;125939;1315;107956;-76
2021/11/28 10:37:24;;;;;;;52.00;32.10;;;;;;;6.07;73.68;98402.59;125970;1315;108913;-77
2021/11/28 10:40:31;;;;;;;57.00;32.60;;;;;;;6.03;73.55;98394.38;126055;1315;108866;-78
2021/11/28 10:43:43;;;;;;;53.70;30.70;;;;;;;6.01;73.57;98388.48;125927;1315;108937;-79
2021/11/28 10:46:49;;;;;;;61.40;35.30;;;;;;;5.95;73.52;98391.98;125943;1315;108745;-78
2021/11/28 10:49:55;;;;;;;58.30;33.50;;;;;;;5.85;73.35;98385.70;126008;1315;108933;-75
2021/11/28 10:53:07;;;;;;;53.60;29.10;;;;;;;5.78;73.50;98377.41;125926;1316;108946;-78
2021/11/28 10:56:16;;;;;;;46.50;28.90;;;;;;;5.71;73.39;98366.45;126050;1315;109060;-76
2021/11/28 10:59:22;;;;;;;50.30;30.50;;;;;;;5.69;73.53;98371.27;125773;1315;108971;-81
2021/11/28 11:02:31;;;;;;;47.00;28.60;;;;;;;5.68;73.50;98369.67;125930;1316;108972;-78
2021/11/28 11:05:38;;;;;;;63.80;36.40;;;;;;;5.65;73.39;98367.45;125920;1317;111754;-79
2021/11/28 11:08:43;;;;;;;80.40;41.20;;;;;;;5.64;73.42;98360.73;126321;1313;108777;-77
2021/11/28 11:11:50;;;;;;;100.60;43.50;;;;;;;5.62;73.37;98350.75;126235;1314;109089;-82
2021/11/28 11:14:58;;;;;;;111.10;52.90;;;;;;;5.60;73.61;98353.23;126274;1313;107901;-83
2021/11/28 11:18:06;;;;;;;112.30;44.70;;;;;;;5.54;73.46;98357.24;126402;1314;109037;-79
2021/11/28 11:21:13;;;;;;;61.90;33.10;;;;;;;5.53;73.58;98350.07;126023;1315;108758;-79
2021/11/28 11:24:26;;;;;;;62.20;32.90;;;;;;;5.58;73.51;98342.16;126037;1314;107720;-79
2021/11/28 11:27:33;;;;;;;58.30;32.60;;;;;;;5.62;73.35;98337.98;126223;1315;108878;-79
2021/11/28 11:30:40;;;;;;;72.00;38.40;;;;;;;5.67;73.23;98340.98;126031;1313;109239;-78
2021/11/28 11:33:45;;;;;;;51.30;30.20;;;;;;;5.72;73.27;98343.39;126034;1313;108757;-79
2021/11/28 11:37:00;;;;;;;56.10;34.60;;;;;;;5.71;73.06;98338.95;125970;1314;108830;-78
2021/11/28 11:40:10;;;;;;;65.70;37.70;;;;;;;5.70;73.14;98331.82;126043;1313;108482;-83
2021/11/28 11:43:18;;;;;;;69.80;41.00;;;;;;;5.69;73.21;98331.05;126223;1313;108793;-81
2021/11/28 11:46:24;;;;;;;73.20;41.20;;;;;;;5.71;73.16;98322.84;126430;1314;108818;-79
2021/11/28 11:49:31;;;;;;;64.60;36.80;;;;;;;5.76;72.99;98321.34;126292;1315;108784;-80
2021/11/28 11:52:43;;;;;;;57.70;34.20;;;;;;;5.72;73.11;98318.73;126289;1317;108900;-82
2021/11/28 11:55:49;;;;;;;62.90;38.00;;;;;;;5.69;73.20;98319.09;126214;1314;106577;-82
2021/11/28 11:59:03;;;;;;;59.00;36.90;;;;;;;5.68;73.02;98321.77;126603;1316;108855;-81
2021/11/28 12:02:08;;;;;;;64.40;39.60;;;;;;;5.62;73.00;98320.52;126390;1313;107530;-84
2021/11/28 12:05:40;;;;;;;79.10;41.50;;;;;;;5.55;72.99;98320.64;126496;1314;107694;-81
2021/11/28 12:08:53;;;;;;;58.40;32.40;;;;;;;5.49;73.14;98311.39;125978;1317;109006;-80
2021/11/28 12:12:00;;;;;;;56.70;31.70;;;;;;;5.45;73.01;98306.48;125973;1314;108861;-79
2021/11/28 12:15:24;;;;;;;60.20;32.60;;;;;;;5.44;73.14;98301.23;126035;1314;109143;-81
2021/11/28 12:18:44;;;;;;;62.80;36.20;;;;;;;5.46;73.05;98302.20;126093;1314;108534;-81
2021/11/28 12:21:49;;;;;;;64.90;35.20;;;;;;;5.44;73.05;98302.20;126406;1315;108792;-82
2021/11/28 12:24:55;;;;;;;64.80;35.60;;;;;;;5.39;72.99;98297.29;126370;1314;108966;-78
2021/11/28 12:28:27;;;;;;;86.60;41.70;;;;;;;5.38;73.10;98291.08;126706;1313;108807;-80
2021/11/28 12:31:38;;;;;;;80.20;40.50;;;;;;;5.36;73.04;98286.33;126453;1315;109108;-80
2021/11/28 12:34:48;;;;;;;89.50;45.10;;;;;;;5.33;73.12;98285.80;126069;1315;107866;-80
2021/11/28 12:37:53;;;;;;;91.80;46.30;;;;;;;5.27;73.12;98279.71;126396;1314;108769;-83
2021/11/28 12:41:09;;;;;;;83.30;45.30;;;;;;;5.22;73.18;98275.77;126430;1313;108656;-82
2021/11/28 12:44:23;;;;;;;69.30;39.70;;;;;;;5.16;73.40;98271.41;126471;1315;108349;-80
2021/11/28 12:47:31;;;;;;;73.30;40.90;;;;;;;5.14;73.30;98270.81;126383;1318;109154;-80
2021/11/28 12:54:24;;;;;;;80.00;43.70;;;;;;;5.03;73.32;98252.79;123021;1355;635633;-80
2021/11/28 12:57:30;;;;;;;78.10;39.20;;;;;;;5.02;73.38;98247.77;125572;1323;107625;-78
2021/11/28 13:00:38;;;;;;;77.40;40.90;;;;;;;5.02;73.32;98243.33;125576;1322;107734;-81
2021/11/28 13:03:45;;;;;;;80.60;43.10;;;;;;;5.02;73.33;98239.52;125615;1323;108985;-79
2021/11/28 13:06:50;;;;;;;70.40;38.90;;;;;;;5.01;73.36;98239.12;126004;1319;207964;-86
2021/11/28 13:09:57;;;;;;;69.80;39.30;;;;;;;4.99;73.31;98234.17;126858;1307;107776;-85
2021/11/28 13:13:05;;;;;;;64.70;37.20;;;;;;;4.98;73.43;98241.90;127141;1307;108936;-81
2021/11/28 13:16:14;;;;;;;102.10;60.90;;;;;;;4.91;73.41;98239.46;127235;1307;108804;-83
2021/11/28 13:19:24;;;;;;;78.30;46.70;;;;;;;4.84;73.36;98238.95;127219;1309;108799;-85
2021/11/28 13:22:48;;;;;;;87.90;51.10;;;;;;;4.78;73.50;98235.48;126814;1307;106769;-84
2021/11/28 13:26:28;;;;;;;79.30;45.60;;;;;;;4.73;73.46;98222.03;126560;1307;108642;-86
2021/11/28 13:29:35;;;;;;;87.30;50.20;;;;;;;4.66;73.69;98218.77;127033;1307;108785;-87
2021/11/28 13:32:41;;;;;;;66.80;36.80;;;;;;;4.61;73.64;98219.98;127112;1306;108953;-87
2021/11/28 13:36:01;;;;;;;71.80;40.80;;;;;;;4.58;73.73;98209.39;127074;1307;107945;-81
2021/11/28 13:39:09;;;;;;;71.70;42.70;;;;;;;4.58;73.70;98205.86;126912;1309;108769;-81
2021/11/28 13:42:15;;;;;;;87.50;55.30;;;;;;;4.58;73.76;98207.73;126706;1309;108978;-79
2021/11/28 13:45:21;;;;;;;85.80;47.30;;;;;;;4.57;73.74;98204.25;126841;1307;108739;-81
2021/11/28 13:48:40;;;;;;;69.10;38.60;;;;;;;4.54;73.89;98213.64;126997;1307;108619;-82
2021/11/28 13:51:48;;;;;;;70.40;37.70;;;;;;;4.46;73.90;98211.33;127047;1307;107795;-79
2021/11/28 13:54:55;;;;;;;65.10;36.30;;;;;;;4.40;73.96;98211.42;126815;1307;109160;-78
2021/11/28 13:58:07;;;;;;;70.40;36.50;;;;;;;4.30;74.07;98206.73;126555;1311;108706;-82
2021/11/28 14:01:17;;;;;;;68.70;36.10;;;;;;;4.12;74.30;98206.31;126898;1307;109895;-81
2021/11/28 14:04:28;;;;;;;64.30;34.40;;;;;;;4.03;74.49;98214.80;126993;1307;108781;-84
2021/11/28 14:07:41;;;;;;;68.60;36.20;;;;;;;3.97;74.64;98223.41;127103;1309;108760;-84
2021/11/28 14:10:48;;;;;;;65.80;33.40;;;;;;;3.94;74.65;98232.30;127226;1307;108972;-84
2021/11/28 14:13:55;;;;;;;71.30;37.30;;;;;;;3.99;74.73;98231.48;127398;1309;109012;-82
2021/11/28 14:17:00;;;;;;;67.10;34.80;;;;;;;4.03;74.80;98223.52;127312;1308;108448;-84
2021/11/28 14:20:11;;;;;;;70.70;40.30;;;;;;;4.02;74.81;98215.32;127230;1313;107593;-84
2021/11/28 14:23:18;;;;;;;68.30;37.10;;;;;;;3.97;74.80;98203.02;127270;1307;109997;-82
2021/11/28 14:26:32;;;;;;;69.30;36.80;;;;;;;3.90;74.79;98190.63;127200;1310;108922;-82